Time;durP1;ratioP1;P1;durP2;ratioP2;P2;SDS_P1;SDS_P2;PMS_P1;PMS_P2;Temp;Humidity;BMP_temperature;BMP_pressure;BME280_temperature;BME280_humidity;BME280_pressure;Samples;Min_cycle;Max_cycle;Signal;HPM_P1;HPM_P2
2021/06/19 00:01:52;;;;;;;;;;;28.00;92.00;;;;;;1908583;74;20163;-85
2021/06/19 00:04:21;;;;;;;;;;;28.00;91.90;;;;;;1908355;74;20158;-87
2021/06/19 00:07:00;;;;;;;;;;;28.00;92.00;;;;;;1906214;73;20170;-86
2021/06/19 00:09:34;;;;;;;;;;;28.00;91.90;;;;;;1907183;74;20424;-85
2021/06/19 00:12:06;;;;;;;;;;;28.10;91.80;;;;;;1905938;74;20120;-86
2021/06/19 00:14:36;;;;;;;;;;;28.20;91.80;;;;;;1910157;74;20484;-87
2021/06/19 00:17:09;;;;;;;;;;;28.20;91.70;;;;;;1907397;74;20509;-87
2021/06/19 00:19:41;;;;;;;;;;;28.30;91.60;;;;;;1911968;74;20220;-86
2021/06/19 00:22:11;;;;;;;;;;;28.30;91.20;;;;;;1908235;74;20128;-86
2021/06/19 00:24:41;;;;;;;;;;;28.30;91.20;;;;;;1912509;74;20146;-86
2021/06/19 00:27:21;;;;;;;;;;;;;;;;;;;;;
2021/06/19 00:29:43;;;;;;;;;;;28.40;91.30;;;;;;1898972;74;20177;-85
2021/06/19 00:32:13;;;;;;;;;;;28.40;91.20;;;;;;1908436;74;20178;-86
2021/06/19 00:34:43;;;;;;;;;;;28.50;91.10;;;;;;1911560;74;20455;-86
2021/06/19 00:37:14;;;;;;;;;;;28.60;91.10;;;;;;1905298;74;20170;-87
2021/06/19 00:39:46;;;;;;;;;;;28.60;90.90;;;;;;1911139;74;20454;-87
2021/06/19 00:42:19;;;;;;;;;;;28.70;90.50;;;;;;1899815;74;20232;-86
2021/06/19 00:44:52;;;;;;;;;;;28.80;90.60;;;;;;1909924;74;20456;-85
2021/06/19 00:47:25;;;;;;;;;;;28.80;90.70;;;;;;1907393;74;20202;-84
2021/06/19 00:49:58;;;;;;;;;;;28.90;90.50;;;;;;1920694;74;20156;-84
2021/06/19 00:52:28;;;;;;;;;;;28.90;90.40;;;;;;1911159;74;20506;-84
2021/06/19 00:54:59;;;;;;;;;;;29.00;90.30;;;;;;1864155;76;20170;-84
2021/06/19 00:57:29;;;;;;;;;;;29.10;89.80;;;;;;1865980;76;20225;-84
2021/06/19 00:59:59;;;;;;;;;;;29.20;89.90;;;;;;1849668;77;20493;-84
2021/06/19 01:02:30;;;;;;;;;;;29.20;89.20;;;;;;1832919;77;20241;-85
2021/06/19 01:05:01;;;;;;;;;;;29.30;89.20;;;;;;1858383;76;20264;-85
2021/06/19 01:07:30;;;;;;;;;;;29.40;88.40;;;;;;1864353;76;20227;-85
2021/06/19 01:10:00;;;;;;;;;;;29.50;88.70;;;;;;1851257;77;20178;-85
2021/06/19 01:12:30;;;;;;;;;;;29.60;88.60;;;;;;1847810;77;20164;-85
2021/06/19 01:15:00;;;;;;;;;;;29.70;87.20;;;;;;1841900;78;20172;-84
2021/06/19 01:17:29;;;;;;;;;;;29.80;87.50;;;;;;1844771;77;20254;-86
2021/06/19 01:20:00;;;;;;;;;;;29.80;87.80;;;;;;1853688;77;20298;-85
2021/06/19 01:22:31;;;;;;;;;;;29.90;87.10;;;;;;1852128;77;20186;-85
2021/06/19 01:25:01;;;;;;;;;;;30.10;86.70;;;;;;1827833;78;20726;-85
2021/06/19 01:27:42;;;;;;;;;;;30.20;85.90;;;;;;1843910;77;20243;-85
2021/06/19 01:30:40;;;;;;;;;;;30.30;84.80;;;;;;1828924;77;20243;-86
2021/06/19 01:33:11;;;;;;;;;;;30.50;83.30;;;;;;1797406;79;20458;-86
2021/06/19 01:35:40;;;;;;;;;;;30.60;82.20;;;;;;1822233;77;20287;-85
2021/06/19 01:38:10;;;;;;;;;;;30.80;81.50;;;;;;1793331;80;20260;-85
2021/06/19 01:40:43;;;;;;;;;;;30.90;81.10;;;;;;1836755;77;20181;-84
2021/06/19 01:43:13;;;;;;;;;;;30.90;80.80;;;;;;1826731;77;20212;-84
2021/06/19 01:45:44;;;;;;;;;;;31.00;79.00;;;;;;1790616;79;20162;-79
2021/06/19 01:48:14;;;;;;;;;;;31.00;79.80;;;;;;1822658;78;20497;-78
2021/06/19 01:50:44;;;;;;;;;;;31.10;79.20;;;;;;1831689;77;20219;-78
2021/06/19 01:56:04;;;;;;;;;;;31.20;79.00;;;;;;1881568;76;20269;-77
2021/06/19 01:58:36;;;;;;;;;;;31.30;78.90;;;;;;1893820;74;20169;-76
2021/06/19 02:01:07;;;;;;;;;;;31.30;78.40;;;;;;1853604;76;20205;-76
2021/06/19 02:03:37;;;;;;;;;;;31.40;77.90;;;;;;1890891;74;20229;-76
2021/06/19 02:06:07;;;;;;;;;;;31.60;77.20;;;;;;1898054;74;20165;-78
2021/06/19 02:08:39;;;;;;;;;;;31.60;75.90;;;;;;1906505;74;20225;-77
2021/06/19 02:11:09;;;;;;;;;;;31.70;74.40;;;;;;1907093;75;20273;-77
2021/06/19 02:13:39;;;;;;;;;;;31.80;74.50;;;;;;1897514;75;20211;-77
2021/06/19 02:16:09;;;;;;;;;;;31.80;73.20;;;;;;1887416;75;20277;-79
2021/06/19 02:18:39;;;;;;;;;;;31.90;71.10;;;;;;1852048;77;20211;-77
2021/06/19 02:21:08;;;;;;;;;;;31.90;71.40;;;;;;1893148;74;20219;-78
2021/06/19 02:23:38;;;;;;;;;;;32.00;72.30;;;;;;1906727;74;20185;-78
2021/06/19 02:26:11;;;;;;;;;;;32.10;72.30;;;;;;1899845;74;20125;-78
2021/06/19 02:28:40;;;;;;;;;;;32.20;72.10;;;;;;1959371;72;20169;-78
2021/06/19 02:31:10;;;;;;;;;;;32.30;71.20;;;;;;1961859;72;20136;-76
2021/06/19 02:33:43;;;;;;;;;;;32.40;71.50;;;;;;1957169;73;20166;-78
2021/06/19 02:36:11;;;;;;;;;;;32.40;67.10;;;;;;1960010;72;20171;-78
2021/06/19 02:38:41;;;;;;;;;;;32.50;66.40;;;;;;1959737;73;20264;-77
2021/06/19 02:41:12;;;;;;;;;;;32.60;65.40;;;;;;1955509;73;20175;-78
2021/06/19 02:43:42;;;;;;;;;;;32.70;65.60;;;;;;1955946;72;20175;-78
2021/06/19 02:46:12;;;;;;;;;;;32.90;64.10;;;;;;1961976;72;20523;-78
2021/06/19 02:48:41;;;;;;;;;;;33.00;63.90;;;;;;1959705;72;20210;-78
2021/06/19 02:51:11;;;;;;;;;;;33.10;62.10;;;;;;1962165;72;20232;-77
2021/06/19 02:53:42;;;;;;;;;;;33.10;62.00;;;;;;1955490;72;20208;-78
2021/06/19 02:56:13;;;;;;;;;;;33.10;62.00;;;;;;1912958;74;20169;-77
2021/06/19 02:58:46;;;;;;;;;;;33.20;62.40;;;;;;1954470;73;20187;-77
2021/06/19 03:01:15;;;;;;;;;;;33.20;61.80;;;;;;1954769;73;20424;-77
2021/06/19 03:03:46;;;;;;;;;;;33.30;62.30;;;;;;1953743;73;20224;-76
2021/06/19 03:06:17;;;;;;;;;;;33.20;62.10;;;;;;1950601;73;20223;-76
2021/06/19 03:08:47;;;;;;;;;;;33.20;62.50;;;;;;1950611;73;20198;-76
2021/06/19 03:11:16;;;;;;;;;;;33.30;63.40;;;;;;1917910;75;20216;-76
2021/06/19 03:13:46;;;;;;;;;;;33.30;62.60;;;;;;1952679;73;20319;-74
2021/06/19 03:16:17;;;;;;;;;;;33.40;63.00;;;;;;1953594;73;20383;-76
2021/06/19 03:18:47;;;;;;;;;;;33.40;62.80;;;;;;1951705;73;20258;-76
2021/06/19 03:21:16;;;;;;;;;;;33.50;63.00;;;;;;1948351;73;20254;-76
2021/06/19 03:23:46;;;;;;;;;;;33.50;62.80;;;;;;1918321;75;20159;-76
2021/06/19 03:26:20;;;;;;;;;;;33.60;61.80;;;;;;1953944;73;20183;-75
2021/06/19 03:28:48;;;;;;;;;;;33.60;61.20;;;;;;1953856;73;20233;-77
2021/06/19 03:31:19;;;;;;;;;;;33.60;60.70;;;;;;1917446;75;20185;-78
2021/06/19 03:33:51;;;;;;;;;;;33.60;62.30;;;;;;1947356;73;20174;-77
2021/06/19 03:36:30;;;;;;;;;;;33.60;61.20;;;;;;1952965;73;20541;-77
2021/06/19 03:39:01;;;;;;;;;;;33.60;62.00;;;;;;1952131;73;20171;-76
2021/06/19 03:41:34;;;;;;;;;;;33.60;59.70;;;;;;1948800;73;20250;-78
2021/06/19 03:44:05;;;;;;;;;;;33.60;60.70;;;;;;1917926;75;20498;-78
2021/06/19 03:46:39;;;;;;;;;;;33.60;61.80;;;;;;1946810;73;21007;-78
2021/06/19 03:49:09;;;;;;;;;;;33.60;61.20;;;;;;1952033;73;20462;-76
2021/06/19 03:51:42;;;;;;;;;;;33.70;61.20;;;;;;1948467;73;20206;-79
2021/06/19 03:54:14;;;;;;;;;;;33.70;60.70;;;;;;1951779;73;20221;-79
2021/06/19 03:56:51;;;;;;;;;;;33.80;59.60;;;;;;1914449;75;20495;-80
2021/06/19 03:59:23;;;;;;;;;;;33.90;60.30;;;;;;1950393;73;20182;-79
2021/06/19 04:01:55;;;;;;;;;;;34.10;59.40;;;;;;1944404;73;20264;-78
2021/06/19 04:04:24;;;;;;;;;;;34.20;58.70;;;;;;1914329;75;20221;-78
2021/06/19 04:06:55;;;;;;;;;;;34.30;58.30;;;;;;1950256;73;20287;-78
2021/06/19 04:09:25;;;;;;;;;;;34.30;58.10;;;;;;1949649;73;20198;-78
2021/06/19 04:11:55;;;;;;;;;;;34.30;58.10;;;;;;1950579;73;20210;-78
2021/06/19 04:14:24;;;;;;;;;;;34.20;58.10;;;;;;1936509;74;20549;-77
2021/06/19 04:16:54;;;;;;;;;;;34.10;57.90;;;;;;1938290;74;20246;-77
2021/06/19 04:19:24;;;;;;;;;;;34.00;59.00;;;;;;1935152;74;20837;-78
2021/06/19 04:21:57;;;;;;;;;;;34.00;60.00;;;;;;1938548;73;20506;-78
2021/06/19 04:24:27;;;;;;;;;;;34.10;59.40;;;;;;1950594;73;20187;-78
2021/06/19 04:26:56;;;;;;;;;;;34.10;59.70;;;;;;1933744;73;20241;-78
2021/06/19 04:29:28;;;;;;;;;;;34.20;59.30;;;;;;1947943;73;20155;-77
2021/06/19 04:31:57;;;;;;;;;;;34.20;59.20;;;;;;1950797;73;20157;-78
2021/06/19 04:34:27;;;;;;;;;;;34.30;58.70;;;;;;1945050;73;20207;-79
2021/06/19 04:36:58;;;;;;;;;;;34.40;58.10;;;;;;1952843;73;20164;-79
2021/06/19 04:42:27;;;;;;;;;;;34.40;57.30;;;;;;1946984;73;20180;-77
2021/06/19 04:45:02;;;;;;;;;;;34.40;57.90;;;;;;1949543;73;20474;-78
2021/06/19 04:47:27;;;;;;;;;;;34.50;58.30;;;;;;1949067;73;20207;-79
2021/06/19 04:49:58;;;;;;;;;;;34.50;57.40;;;;;;1944618;73;20514;-78
2021/06/19 04:52:31;;;;;;;;;;;34.60;56.60;;;;;;1940914;72;20233;-79
2021/06/19 04:55:01;;;;;;;;;;;34.60;56.00;;;;;;1950364;73;20155;-78
2021/06/19 04:57:31;;;;;;;;;;;34.50;56.50;;;;;;1949879;73;20253;-79
2021/06/19 05:00:01;;;;;;;;;;;34.50;56.70;;;;;;1938753;73;20482;-78
2021/06/19 05:02:31;;;;;;;;;;;34.50;56.40;;;;;;1946470;73;20203;-78
2021/06/19 05:05:04;;;;;;;;;;;34.40;56.20;;;;;;1936020;73;20277;-77
2021/06/19 05:07:35;;;;;;;;;;;34.30;57.00;;;;;;1937662;73;20167;-77
2021/06/19 05:10:06;;;;;;;;;;;34.30;57.20;;;;;;1934718;73;20179;-75
2021/06/19 05:12:36;;;;;;;;;;;34.40;58.10;;;;;;1944189;73;20187;-76
2021/06/19 05:15:08;;;;;;;;;;;34.40;57.40;;;;;;1947689;73;20186;-75
2021/06/19 05:17:38;;;;;;;;;;;34.50;58.20;;;;;;1935555;73;20216;-77
2021/06/19 05:20:08;;;;;;;;;;;34.60;57.10;;;;;;1939818;73;20128;-77
2021/06/19 05:22:38;;;;;;;;;;;34.70;56.60;;;;;;1933651;73;20156;-77
2021/06/19 05:25:12;;;;;;;;;;;34.80;57.00;;;;;;1939409;73;20159;-79
2021/06/19 05:27:42;;;;;;;;;;;34.90;56.60;;;;;;1932558;73;20179;-78
2021/06/19 05:30:13;;;;;;;;;;;35.00;56.90;;;;;;1931612;73;20253;-78
2021/06/19 05:32:43;;;;;;;;;;;35.00;56.70;;;;;;1945443;73;20469;-79
2021/06/19 05:35:16;;;;;;;;;;;35.00;56.90;;;;;;1935919;73;20132;-77
2021/06/19 05:37:46;;;;;;;;;;;35.00;56.20;;;;;;1937737;73;20259;-78
2021/06/19 05:40:16;;;;;;;;;;;35.00;56.70;;;;;;1929986;73;20202;-79
2021/06/19 05:42:53;;;;;;;;;;;35.10;56.20;;;;;;1938393;73;20218;-79
2021/06/19 05:45:23;;;;;;;;;;;35.20;55.90;;;;;;1938293;73;20172;-78
2021/06/19 05:47:56;;;;;;;;;;;35.20;55.70;;;;;;1937430;73;20477;-78
2021/06/19 05:50:27;;;;;;;;;;;35.10;56.20;;;;;;1935944;73;20177;-77
2021/06/19 05:53:07;;;;;;;;;;;35.10;56.80;;;;;;1935671;73;20242;-78
2021/06/19 05:55:39;;;;;;;;;;;35.10;55.70;;;;;;1932674;73;20192;-78
2021/06/19 05:58:54;;;;;;;;;;;35.10;55.20;;;;;;1936017;73;20257;-79
2021/06/19 06:01:07;;;;;;;;;;;35.00;55.50;;;;;;1927171;73;20159;-79
2021/06/19 06:03:54;;;;;;;;;;;35.00;55.80;;;;;;1875783;76;20128;-79
2021/06/19 06:06:27;;;;;;;;;;;35.00;55.80;;;;;;1906119;74;20224;-79
2021/06/19 06:09:42;;;;;;;;;;;35.10;55.70;;;;;;1880831;75;20191;-79
2021/06/19 06:11:49;;;;;;;;;;;35.20;55.10;;;;;;1882513;75;20119;-76
2021/06/19 06:14:24;;;;;;;;;;;35.20;54.60;;;;;;1878105;75;20197;-78
2021/06/19 06:16:59;;;;;;;;;;;35.30;54.20;;;;;;1882579;74;20254;-77
2021/06/19 06:19:27;;;;;;;;;;;35.30;53.90;;;;;;1867060;76;20206;-78
2021/06/19 06:21:59;;;;;;;;;;;35.40;52.60;;;;;;1961451;72;20170;-77
2021/06/19 06:24:37;;;;;;;;;;;35.40;52.60;;;;;;1950665;72;20202;-79
2021/06/19 06:27:24;;;;;;;;;;;35.40;52.80;;;;;;1956705;73;20124;-79
2021/06/19 06:29:56;;;;;;;;;;;35.40;52.60;;;;;;1962922;73;20493;-79
2021/06/19 06:32:26;;;;;;;;;;;35.30;52.10;;;;;;1960667;73;20196;-79
2021/06/19 06:34:57;;;;;;;;;;;35.20;52.40;;;;;;1959030;72;20128;-78
2021/06/19 06:37:27;;;;;;;;;;;35.10;53.00;;;;;;1940943;73;20261;-78
2021/06/19 06:39:57;;;;;;;;;;;35.10;53.20;;;;;;1937168;73;20180;-78
2021/06/19 06:42:27;;;;;;;;;;;35.10;53.60;;;;;;1942184;73;20478;-79
2021/06/19 06:44:57;;;;;;;;;;;35.10;53.20;;;;;;1945120;73;20246;-76
2021/06/19 06:47:26;;;;;;;;;;;35.10;53.80;;;;;;1956401;73;20177;-78
2021/06/19 06:49:56;;;;;;;;;;;35.00;53.70;;;;;;1959922;73;20198;-77
2021/06/19 06:52:26;;;;;;;;;;;35.00;53.00;;;;;;1960916;73;20603;-77
2021/06/19 06:54:59;;;;;;;;;;;35.10;53.50;;;;;;1960749;73;20215;-76
2021/06/19 06:57:28;;;;;;;;;;;35.20;52.70;;;;;;1962510;73;20202;-78
2021/06/19 06:59:58;;;;;;;;;;;35.30;53.10;;;;;;1959184;73;20458;-78
2021/06/19 07:02:31;;;;;;;;;;;35.30;53.00;;;;;;1961349;73;20210;-77
2021/06/19 07:04:59;;;;;;;;;;;35.30;53.00;;;;;;1957712;73;20483;-77
2021/06/19 07:07:30;;;;;;;;;;;35.30;53.40;;;;;;1955622;73;20497;-76
2021/06/19 07:10:01;;;;;;;;;;;35.30;52.90;;;;;;1956505;73;20131;-77
2021/06/19 07:12:31;;;;;;;;;;;35.30;53.60;;;;;;1964238;73;20210;-77
2021/06/19 07:15:01;;;;;;;;;;;35.40;53.60;;;;;;1963448;73;20225;-77
2021/06/19 07:17:31;;;;;;;;;;;35.30;53.40;;;;;;1973394;73;20212;-78
2021/06/19 07:20:11;;;;;;;;;;;35.30;53.50;;;;;;1958262;73;20210;-77
2021/06/19 07:22:42;;;;;;;;;;;35.20;52.80;;;;;;1959220;73;20205;-76
2021/06/19 07:25:12;;;;;;;;;;;35.20;54.40;;;;;;1961068;73;20132;-75
2021/06/19 07:27:43;;;;;;;;;;;35.20;53.70;;;;;;1960962;73;20300;-77
2021/06/19 07:30:14;;;;;;;;;;;35.20;54.20;;;;;;1959329;73;20178;-77
2021/06/19 07:32:45;;;;;;;;;;;35.20;54.40;;;;;;1954828;73;20205;-76
2021/06/19 07:35:15;;;;;;;;;;;35.20;54.20;;;;;;1959741;73;20518;-77
2021/06/19 07:37:48;;;;;;;;;;;35.30;54.20;;;;;;1961593;73;20290;-76
2021/06/19 07:40:17;;;;;;;;;;;35.30;53.90;;;;;;1961749;73;20163;-78
2021/06/19 07:42:47;;;;;;;;;;;35.20;54.00;;;;;;1961007;73;20209;-77
2021/06/19 07:45:31;;;;;;;;;;;35.30;53.90;;;;;;1958753;73;20154;-78
2021/06/19 07:47:49;;;;;;;;;;;35.40;53.40;;;;;;1957196;73;20142;-77
2021/06/19 07:50:19;;;;;;;;;;;35.30;53.70;;;;;;1961667;73;20216;-77
2021/06/19 07:52:50;;;;;;;;;;;35.40;53.90;;;;;;1961423;73;20184;-79
2021/06/19 07:55:21;;;;;;;;;;;35.30;53.40;;;;;;1957951;73;20235;-77
2021/06/19 07:57:54;;;;;;;;;;;35.20;53.50;;;;;;1967926;73;20228;-75
2021/06/19 08:03:14;;;;;;;;;;;35.20;54.40;;;;;;1889308;74;20165;-77
2021/06/19 08:05:43;;;;;;;;;;;35.20;53.60;;;;;;1878122;75;20199;-77
2021/06/19 08:08:14;;;;;;;;;;;35.30;53.90;;;;;;1896630;75;20131;-77
2021/06/19 08:10:44;;;;;;;;;;;35.20;54.10;;;;;;1874246;75;20243;-76
2021/06/19 08:13:13;;;;;;;;;;;35.30;54.00;;;;;;1868415;76;20504;-77
2021/06/19 08:15:43;;;;;;;;;;;35.30;54.10;;;;;;1892543;75;20340;-76
2021/06/19 08:18:13;;;;;;;;;;;35.20;54.60;;;;;;1894008;76;20128;-77
2021/06/19 08:20:43;;;;;;;;;;;35.30;54.80;;;;;;1899576;74;20204;-77
2021/06/19 08:23:14;;;;;;;;;;;35.30;54.20;;;;;;1871208;75;20771;-78
2021/06/19 08:25:44;;;;;;;;;;;35.40;54.50;;;;;;1872545;75;20201;-78
2021/06/19 08:28:14;;;;;;;;;;;35.40;54.30;;;;;;1926930;73;20377;-78
2021/06/19 08:30:43;;;;;;;;;;;35.40;54.70;;;;;;1935577;73;20215;-78
2021/06/19 08:33:13;;;;;;;;;;;35.40;54.60;;;;;;1939674;72;20215;-78
2021/06/19 08:35:44;;;;;;;;;;;35.40;54.30;;;;;;1929777;74;20195;-79
2021/06/19 08:38:14;;;;;;;;;;;35.40;54.30;;;;;;1924367;74;20114;-78
2021/06/19 08:40:46;;;;;;;;;;;35.50;53.80;;;;;;1928112;73;20270;-78
2021/06/19 08:43:17;;;;;;;;;;;35.50;53.80;;;;;;1919508;74;20192;-78
2021/06/19 08:45:48;;;;;;;;;;;35.40;54.10;;;;;;1935654;73;20251;-79
2021/06/19 08:48:19;;;;;;;;;;;35.50;53.90;;;;;;1942182;73;20177;-78
2021/06/19 08:50:50;;;;;;;;;;;35.40;53.50;;;;;;1899605;75;20474;-79
2021/06/19 08:53:36;;;;;;;;;;;35.30;54.00;;;;;;1873931;74;20183;-79
2021/06/19 08:56:07;;;;;;;;;;;35.30;54.10;;;;;;1897882;74;20190;-79
2021/06/19 08:58:37;;;;;;;;;;;35.20;54.00;;;;;;1932484;73;20618;-79
2021/06/19 09:01:06;;;;;;;;;;;35.20;54.20;;;;;;1937591;73;20221;-78
2021/06/19 09:03:36;;;;;;;;;;;35.30;54.60;;;;;;1900271;74;20175;-79
2021/06/19 09:06:06;;;;;;;;;;;35.30;54.50;;;;;;1885414;76;20218;-78
2021/06/19 09:08:38;;;;;;;;;;;35.30;54.70;;;;;;1889664;76;20247;-77
2021/06/19 09:11:09;;;;;;;;;;;35.30;54.30;;;;;;1894902;75;20210;-80
2021/06/19 09:13:38;;;;;;;;;;;35.30;54.70;;;;;;1888634;74;20529;-78
2021/06/19 09:16:10;;;;;;;;;;;35.30;54.40;;;;;;1888781;76;20595;-78
2021/06/19 09:18:40;;;;;;;;;;;35.40;53.90;;;;;;1881830;76;20228;-80
2021/06/19 09:21:10;;;;;;;;;;;35.40;54.00;;;;;;1890452;76;20486;-79
2021/06/19 09:23:41;;;;;;;;;;;35.30;53.20;;;;;;1863109;76;20252;-79
2021/06/19 09:26:12;;;;;;;;;;;35.30;54.00;;;;;;1894378;76;20133;-79
2021/06/19 09:28:43;;;;;;;;;;;35.20;51.80;;;;;;1886295;76;20616;-79
2021/06/19 09:31:13;;;;;;;;;;;35.20;51.20;;;;;;1891122;76;20130;-78
2021/06/19 09:33:43;;;;;;;;;;;35.20;52.50;;;;;;1893327;76;20229;-78
2021/06/19 09:36:14;;;;;;;;;;;35.20;53.10;;;;;;1893661;76;20207;-78
2021/06/19 09:38:44;;;;;;;;;;;35.20;52.40;;;;;;1884666;76;20169;-78
2021/06/19 09:41:15;;;;;;;;;;;35.20;52.70;;;;;;1856910;76;20272;-78
2021/06/19 09:43:45;;;;;;;;;;;35.10;52.90;;;;;;1857053;77;20153;-78
2021/06/19 09:46:15;;;;;;;;;;;35.10;51.60;;;;;;1845918;76;20191;-79
2021/06/19 09:48:46;;;;;;;;;;;35.10;52.40;;;;;;1857402;77;20219;-79
2021/06/19 09:51:15;;;;;;;;;;;35.10;52.30;;;;;;1861371;76;20511;-78
2021/06/19 09:53:50;;;;;;;;;;;35.00;52.60;;;;;;1886398;76;20485;-76
2021/06/19 09:56:27;;;;;;;;;;;35.00;52.50;;;;;;1888330;76;20198;-79
2021/06/19 09:58:58;;;;;;;;;;;35.00;50.00;;;;;;1889202;76;20169;-79
2021/06/19 10:01:32;;;;;;;;;;;35.00;49.40;;;;;;1885051;76;20431;-79
2021/06/19 10:04:03;;;;;;;;;;;35.00;50.00;;;;;;1918637;74;20539;-78
2021/06/19 10:06:36;;;;;;;;;;;35.00;50.70;;;;;;1926849;74;20251;-78
2021/06/19 10:09:06;;;;;;;;;;;35.00;51.20;;;;;;1896763;75;20231;-78
2021/06/19 10:11:36;;;;;;;;;;;35.00;51.10;;;;;;1898047;74;20239;-79
2021/06/19 10:14:07;;;;;;;;;;;35.00;50.80;;;;;;1906403;75;20249;-78
2021/06/19 10:16:40;;;;;;;;;;;35.00;51.30;;;;;;1911627;74;20247;-79
2021/06/19 10:19:09;;;;;;;;;;;35.00;50.90;;;;;;1932761;73;20215;-78
2021/06/19 10:21:39;;;;;;;;;;;35.00;50.90;;;;;;1931925;73;20228;-79
2021/06/19 10:24:10;;;;;;;;;;;35.00;50.60;;;;;;1926911;73;20227;-80
2021/06/19 10:26:41;;;;;;;;;;;34.90;50.40;;;;;;1927140;74;20173;-77
2021/06/19 10:29:11;;;;;;;;;;;34.90;51.00;;;;;;1927196;74;20228;-78
2021/06/19 10:31:42;;;;;;;;;;;34.90;50.90;;;;;;1927090;74;20205;-78
2021/06/19 10:34:13;;;;;;;;;;;34.90;51.20;;;;;;1925830;74;20173;-77
2021/06/19 10:36:43;;;;;;;;;;;34.80;51.30;;;;;;1924700;73;20831;-78
2021/06/19 10:39:15;;;;;;;;;;;34.80;51.10;;;;;;1928478;73;20232;-76
2021/06/19 10:41:45;;;;;;;;;;;34.80;51.30;;;;;;1895021;74;20209;-77
2021/06/19 10:44:15;;;;;;;;;;;34.70;51.70;;;;;;1890301;74;20190;-77
2021/06/19 10:46:45;;;;;;;;;;;34.60;51.80;;;;;;1926676;74;20201;-78
2021/06/19 10:49:32;;;;;;;;;;;34.60;51.20;;;;;;1879322;73;20201;-76
2021/06/19 10:52:06;;;;;;;;;;;34.50;51.50;;;;;;1926424;73;20184;-76
2021/06/19 10:54:36;;;;;;;;;;;34.60;51.40;;;;;;1926956;74;20537;-75
2021/06/19 10:57:06;;;;;;;;;;;34.50;51.00;;;;;;1926187;74;20543;-77
2021/06/19 10:59:53;;;;;;;;;;;34.60;51.40;;;;;;1913935;73;20197;-76
2021/06/19 11:02:25;;;;;;;;;;;34.50;51.60;;;;;;1920991;74;20184;-75
2021/06/19 11:04:55;;;;;;;;;;;34.40;52.50;;;;;;1865947;76;20187;-76
2021/06/19 11:07:24;;;;;;;;;;;34.40;52.20;;;;;;1900909;75;20234;-76
2021/06/19 11:09:54;;;;;;;;;;;34.40;52.00;;;;;;1890933;75;20523;-76
2021/06/19 11:12:25;;;;;;;;;;;34.40;51.80;;;;;;1901944;75;20254;-76
2021/06/19 11:14:56;;;;;;;;;;;34.40;52.40;;;;;;1895993;74;20184;-76
2021/06/19 11:17:27;;;;;;;;;;;34.30;52.50;;;;;;1894706;74;20120;-76
2021/06/19 11:20:06;;;;;;;;;;;34.30;52.60;;;;;;1895713;74;20183;-76
2021/06/19 11:22:30;;;;;;;;;;;34.30;52.20;;;;;;1894478;74;20175;-76
2021/06/19 11:25:01;;;;;;;;;;;34.30;52.50;;;;;;1864854;76;20134;-76
2021/06/19 11:27:32;;;;;;;;;;;34.30;52.60;;;;;;1866162;77;20240;-75
2021/06/19 11:30:02;;;;;;;;;;;34.30;53.00;;;;;;1898376;74;20156;-77
2021/06/19 11:32:35;;;;;;;;;;;34.20;53.40;;;;;;1909306;74;20145;-76
2021/06/19 11:35:04;;;;;;;;;;;34.20;53.60;;;;;;1873102;76;20317;-76
2021/06/19 11:37:35;;;;;;;;;;;34.10;53.90;;;;;;1890038;76;20215;-78
2021/06/19 11:40:08;;;;;;;;;;;34.10;53.70;;;;;;1861985;76;20217;-76
2021/06/19 11:42:39;;;;;;;;;;;34.00;54.10;;;;;;1889368;76;20166;-87
2021/06/19 11:45:10;;;;;;;;;;;34.00;54.40;;;;;;1937037;74;20173;-88
2021/06/19 11:47:40;;;;;;;;;;;33.90;54.70;;;;;;1934403;73;20214;-87
2021/06/19 11:50:13;;;;;;;;;;;33.90;54.70;;;;;;1933567;73;20232;-87
2021/06/19 11:52:43;;;;;;;;;;;33.80;55.10;;;;;;1936429;74;20208;-88
2021/06/19 11:55:14;;;;;;;;;;;33.80;55.50;;;;;;1903269;74;20216;-87
2021/06/19 11:57:45;;;;;;;;;;;33.80;55.40;;;;;;1928857;73;20160;-86
2021/06/19 12:00:20;;;;;;;;;;;33.80;55.70;;;;;;1922994;73;20273;-87
2021/06/19 12:02:49;;;;;;;;;;;33.70;55.50;;;;;;1935610;74;20208;-86
2021/06/19 12:05:19;;;;;;;;;;;33.70;55.90;;;;;;1899052;74;20260;-87
2021/06/19 12:07:50;;;;;;;;;;;33.70;56.00;;;;;;1893142;76;20203;-87
2021/06/19 12:13:25;;;;;;;;;;;33.70;56.10;;;;;;1940293;71;20163;-89
2021/06/19 12:15:55;;;;;;;;;;;33.60;55.90;;;;;;1946219;73;20835;-87
2021/06/19 12:18:26;;;;;;;;;;;33.50;56.10;;;;;;1936086;73;20644;-88
2021/06/19 12:20:57;;;;;;;;;;;33.50;56.50;;;;;;1945875;73;20290;-88
2021/06/19 12:23:34;;;;;;;;;;;33.40;56.50;;;;;;1929866;73;20160;-88
2021/06/19 12:26:06;;;;;;;;;;;33.40;56.80;;;;;;1908251;75;20248;-88
2021/06/19 12:28:38;;;;;;;;;;;33.40;56.70;;;;;;1898247;75;20308;-87
2021/06/19 12:31:36;;;;;;;;;;;33.30;56.80;;;;;;1896084;73;20244;-89
2021/06/19 12:34:08;;;;;;;;;;;33.30;57.20;;;;;;1883830;75;20266;-87
2021/06/19 12:36:38;;;;;;;;;;;33.20;57.60;;;;;;1889227;75;20218;-89
2021/06/19 12:39:10;;;;;;;;;;;33.20;57.90;;;;;;1901143;74;20245;-88
2021/06/19 12:42:02;;;;;;;;;;;33.20;58.30;;;;;;1898192;75;20312;-87
2021/06/19 12:44:33;;;;;;;;;;;33.10;58.30;;;;;;1894716;75;20272;-89
2021/06/19 12:47:04;;;;;;;;;;;33.10;58.50;;;;;;1902645;75;20229;-90
2021/06/19 12:49:35;;;;;;;;;;;33.10;58.60;;;;;;1892733;75;20181;-87
2021/06/19 12:52:05;;;;;;;;;;;33.00;58.20;;;;;;1900863;75;20187;-87
2021/06/19 12:54:34;;;;;;;;;;;33.00;58.00;;;;;;1890556;74;20202;-88
2021/06/19 12:57:05;;;;;;;;;;;33.00;58.10;;;;;;1879253;75;20241;-89
2021/06/19 12:59:36;;;;;;;;;;;33.00;58.40;;;;;;1889418;75;20168;-89
2021/06/19 13:02:07;;;;;;;;;;;32.90;58.40;;;;;;1889417;75;20201;-88
2021/06/19 13:04:40;;;;;;;;;;;32.90;58.40;;;;;;1902939;74;20154;-89
2021/06/19 13:07:16;;;;;;;;;;;32.90;58.70;;;;;;1893267;75;20240;-88
2021/06/19 13:09:46;;;;;;;;;;;32.90;58.90;;;;;;1932949;73;20180;-87
2021/06/19 13:12:20;;;;;;;;;;;32.80;58.80;;;;;;1921583;73;20138;-88
2021/06/19 13:14:55;;;;;;;;;;;32.80;59.40;;;;;;1922840;74;20193;-90
2021/06/19 13:17:26;;;;;;;;;;;32.80;59.40;;;;;;1959370;73;20599;-89
2021/06/19 13:19:58;;;;;;;;;;;32.80;59.40;;;;;;1954860;73;20199;-89
2021/06/19 13:22:28;;;;;;;;;;;32.70;59.50;;;;;;1960709;73;20658;-90
2021/06/19 13:24:59;;;;;;;;;;;32.70;59.60;;;;;;1957091;73;20219;-88
2021/06/19 13:27:30;;;;;;;;;;;32.70;59.50;;;;;;1952299;73;20186;-89
2021/06/19 13:30:07;;;;;;;;;;;32.60;59.60;;;;;;1995572;72;20177;-88
2021/06/19 13:32:44;;;;;;;;;;;;;;;;;;;;;
2021/06/19 13:35:10;;;;;;;;;;;32.60;60.50;;;;;;1926982;74;20174;-88
2021/06/19 13:37:43;;;;;;;;;;;32.50;60.80;;;;;;1958169;73;20194;-89
2021/06/19 13:40:14;;;;;;;;;;;32.50;61.20;;;;;;1940301;73;20245;-89
2021/06/19 13:42:45;;;;;;;;;;;32.40;61.30;;;;;;1954786;73;20205;-88
2021/06/19 13:45:17;;;;;;;;;;;32.40;61.30;;;;;;1954464;73;20475;-88
2021/06/19 13:47:47;;;;;;;;;;;32.40;61.60;;;;;;1947240;73;20234;-89
2021/06/19 13:50:17;;;;;;;;;;;32.30;61.50;;;;;;1925722;74;20158;-88
2021/06/19 13:52:49;;;;;;;;;;;32.30;62.00;;;;;;1873966;76;20218;-89
2021/06/19 13:55:22;;;;;;;;;;;32.30;62.20;;;;;;1923906;74;20196;-90
2021/06/19 13:58:11;;;;;;;;;;;32.30;62.40;;;;;;1925120;74;20215;-90
2021/06/19 14:00:41;;;;;;;;;;;32.30;62.60;;;;;;1873233;75;20195;-81
2021/06/19 14:03:11;;;;;;;;;;;32.30;63.00;;;;;;1930250;73;20236;-83
2021/06/19 14:05:42;;;;;;;;;;;32.20;63.10;;;;;;1928910;73;20629;-93
2021/06/19 14:08:13;;;;;;;;;;;32.20;63.20;;;;;;1924516;74;20259;-92
2021/06/19 14:10:44;;;;;;;;;;;32.10;63.50;;;;;;1902844;74;20216;-93
2021/06/19 14:13:14;;;;;;;;;;;32.10;63.80;;;;;;1895697;74;20581;-87
2021/06/19 14:15:46;;;;;;;;;;;32.10;64.00;;;;;;1844721;77;20493;-90
2021/06/19 14:18:15;;;;;;;;;;;32.10;64.40;;;;;;1875018;76;20155;-92
2021/06/19 14:20:45;;;;;;;;;;;32.00;64.70;;;;;;1862768;76;20281;-90
2021/06/19 14:23:17;;;;;;;;;;;32.00;64.80;;;;;;1838641;76;20210;-93
2021/06/19 14:25:47;;;;;;;;;;;31.90;65.00;;;;;;1859434;76;20280;-91
2021/06/19 14:28:22;;;;;;;;;;;31.90;65.10;;;;;;1859734;76;20132;-94
2021/06/19 14:30:51;;;;;;;;;;;31.80;65.50;;;;;;1862762;77;20207;-95
2021/06/19 14:33:22;;;;;;;;;;;31.80;66.10;;;;;;1861715;76;20199;-93
2021/06/19 14:35:57;;;;;;;;;;;31.70;66.00;;;;;;1861675;77;20867;-93
2021/06/19 14:38:30;;;;;;;;;;;31.70;66.50;;;;;;1866043;76;20205;-95
2021/06/19 14:41:04;;;;;;;;;;;31.70;66.70;;;;;;1864486;76;20132;-94
2021/06/19 14:43:35;;;;;;;;;;;31.70;67.10;;;;;;1860149;77;20210;-95
2021/06/19 14:46:06;;;;;;;;;;;31.50;67.00;;;;;;1862244;76;20216;-91
2021/06/19 14:48:54;;;;;;;;;;;31.50;67.10;;;;;;1860532;77;20215;-93
2021/06/19 14:51:25;;;;;;;;;;;31.50;67.40;;;;;;1862403;76;20229;-95
2021/06/19 14:53:55;;;;;;;;;;;31.50;67.60;;;;;;1878831;76;20199;-94
2021/06/19 14:56:25;;;;;;;;;;;31.40;67.60;;;;;;1867767;76;20197;-95